sensor_id;sensor_type;location;lat;lon;timestamp;temperature;humidity
18450;DHT22;9354;50.194;7.690;2022-08-01T00:00:00;22.10;95.60
18450;DHT22;9354;50.194;7.690;2022-08-01T00:02:29;22.10;95.60
18450;DHT22;9354;50.194;7.690;2022-08-01T00:04:57;22.10;95.70
18450;DHT22;9354;50.194;7.690;2022-08-01T00:07:26;22.10;95.80
18450;DHT22;9354;50.194;7.690;2022-08-01T00:09:53;22.10;95.80
18450;DHT22;9354;50.194;7.690;2022-08-01T00:12:21;22.00;95.80
18450;DHT22;9354;50.194;7.690;2022-08-01T00:14:49;22.00;95.90
18450;DHT22;9354;50.194;7.690;2022-08-01T00:17:17;22.00;95.90
18450;DHT22;9354;50.194;7.690;2022-08-01T00:19:44;22.00;96.00
18450;DHT22;9354;50.194;7.690;2022-08-01T00:22:11;22.00;96.00
18450;DHT22;9354;50.194;7.690;2022-08-01T00:24:39;22.00;96.00
18450;DHT22;9354;50.194;7.690;2022-08-01T00:27:06;21.90;96.00
18450;DHT22;9354;50.194;7.690;2022-08-01T00:29:33;21.90;96.10
18450;DHT22;9354;50.194;7.690;2022-08-01T00:32:02;21.90;96.10
18450;DHT22;9354;50.194;7.690;2022-08-01T00:34:30;21.80;96.20
18450;DHT22;9354;50.194;7.690;2022-08-01T00:36:57;21.80;96.30
18450;DHT22;9354;50.194;7.690;2022-08-01T00:39:25;21.70;96.40
18450;DHT22;9354;50.194;7.690;2022-08-01T00:41:52;21.70;96.50
18450;DHT22;9354;50.194;7.690;2022-08-01T00:44:19;21.70;96.60
18450;DHT22;9354;50.194;7.690;2022-08-01T00:46:47;21.70;96.60
18450;DHT22;9354;50.194;7.690;2022-08-01T00:49:15;21.70;96.60
18450;DHT22;9354;50.194;7.690;2022-08-01T00:51:43;21.70;96.80
18450;DHT22;9354;50.194;7.690;2022-08-01T00:54:10;21.70;96.80
18450;DHT22;9354;50.194;7.690;2022-08-01T00:56:38;21.70;96.90
18450;DHT22;9354;50.194;7.690;2022-08-01T00:59:06;21.70;97.00
18450;DHT22;9354;50.194;7.690;2022-08-01T01:01:34;21.70;97.10
18450;DHT22;9354;50.194;7.690;2022-08-01T01:04:01;21.70;97.10
18450;DHT22;9354;50.194;7.690;2022-08-01T01:06:41;21.70;97.10
18450;DHT22;9354;50.194;7.690;2022-08-01T01:09:17;21.70;97.10
18450;DHT22;9354;50.194;7.690;2022-08-01T01:11:52;21.70;97.10
18450;DHT22;9354;50.194;7.690;2022-08-01T01:14:29;21.70;97.10
18450;DHT22;9354;50.194;7.690;2022-08-01T01:16:58;21.60;97.10
18450;DHT22;9354;50.194;7.690;2022-08-01T01:19:30;21.60;97.10
18450;DHT22;9354;50.194;7.690;2022-08-01T01:22:20;21.60;97.20
18450;DHT22;9354;50.194;7.690;2022-08-01T01:25:02;21.60;97.20
18450;DHT22;9354;50.194;7.690;2022-08-01T01:27:39;21.60;97.20
18450;DHT22;9354;50.194;7.690;2022-08-01T01:30:11;21.60;97.30
18450;DHT22;9354;50.194;7.690;2022-08-01T01:32:41;21.50;97.30
18450;DHT22;9354;50.194;7.690;2022-08-01T01:35:16;21.50;97.40
18450;DHT22;9354;50.194;7.690;2022-08-01T01:37:46;21.50;97.40
18450;DHT22;9354;50.194;7.690;2022-08-01T01:40:15;21.50;97.50
18450;DHT22;9354;50.194;7.690;2022-08-01T01:42:44;21.50;97.50
18450;DHT22;9354;50.194;7.690;2022-08-01T01:45:14;21.40;97.50
18450;DHT22;9354;50.194;7.690;2022-08-01T01:47:43;21.40;97.60
18450;DHT22;9354;50.194;7.690;2022-08-01T01:50:11;21.40;97.60
18450;DHT22;9354;50.194;7.690;2022-08-01T01:52:39;21.40;97.60
18450;DHT22;9354;50.194;7.690;2022-08-01T01:55:09;21.40;97.60
18450;DHT22;9354;50.194;7.690;2022-08-01T01:57:39;21.40;97.60
18450;DHT22;9354;50.194;7.690;2022-08-01T02:00:08;21.40;97.70
18450;DHT22;9354;50.194;7.690;2022-08-01T02:02:39;21.40;97.70
18450;DHT22;9354;50.194;7.690;2022-08-01T02:05:11;21.40;97.70
18450;DHT22;9354;50.194;7.690;2022-08-01T02:07:39;21.40;97.70
18450;DHT22;9354;50.194;7.690;2022-08-01T02:10:10;21.40;97.70
18450;DHT22;9354;50.194;7.690;2022-08-01T02:12:40;21.40;97.80
18450;DHT22;9354;50.194;7.690;2022-08-01T02:15:09;21.40;97.80
18450;DHT22;9354;50.194;7.690;2022-08-01T02:17:44;21.40;97.80
18450;DHT22;9354;50.194;7.690;2022-08-01T02:20:13;21.40;97.80
18450;DHT22;9354;50.194;7.690;2022-08-01T02:22:42;21.40;97.80
18450;DHT22;9354;50.194;7.690;2022-08-01T02:25:17;21.40;97.80
18450;DHT22;9354;50.194;7.690;2022-08-01T02:27:52;21.30;97.80
18450;DHT22;9354;50.194;7.690;2022-08-01T02:30:23;21.30;97.80
18450;DHT22;9354;50.194;7.690;2022-08-01T02:32:58;21.30;97.90
18450;DHT22;9354;50.194;7.690;2022-08-01T02:35:30;21.30;97.90
18450;DHT22;9354;50.194;7.690;2022-08-01T02:38:00;21.30;97.90
18450;DHT22;9354;50.194;7.690;2022-08-01T02:40:31;21.30;98.00
18450;DHT22;9354;50.194;7.690;2022-08-01T02:43:02;21.30;98.00
18450;DHT22;9354;50.194;7.690;2022-08-01T02:45:30;21.30;98.00
18450;DHT22;9354;50.194;7.690;2022-08-01T02:48:04;21.30;98.10
18450;DHT22;9354;50.194;7.690;2022-08-01T02:50:33;21.30;98.10
18450;DHT22;9354;50.194;7.690;2022-08-01T02:53:02;21.30;98.10
18450;DHT22;9354;50.194;7.690;2022-08-01T02:55:32;21.30;98.10
18450;DHT22;9354;50.194;7.690;2022-08-01T02:58:01;21.30;98.10
18450;DHT22;9354;50.194;7.690;2022-08-01T03:00:30;21.20;98.10
18450;DHT22;9354;50.194;7.690;2022-08-01T03:03:01;21.20;98.20
18450;DHT22;9354;50.194;7.690;2022-08-01T03:05:31;21.20;98.30
18450;DHT22;9354;50.194;7.690;2022-08-01T03:08:00;21.10;98.30
18450;DHT22;9354;50.194;7.690;2022-08-01T03:10:30;21.10;98.40
18450;DHT22;9354;50.194;7.690;2022-08-01T03:13:00;21.10;98.40
18450;DHT22;9354;50.194;7.690;2022-08-01T03:15:31;21.10;98.40
18450;DHT22;9354;50.194;7.690;2022-08-01T03:18:02;21.10;98.50
18450;DHT22;9354;50.194;7.690;2022-08-01T03:20:31;21.10;98.50
18450;DHT22;9354;50.194;7.690;2022-08-01T03:23:00;21.00;98.60
18450;DHT22;9354;50.194;7.690;2022-08-01T03:25:30;21.00;98.70
18450;DHT22;9354;50.194;7.690;2022-08-01T03:28:01;21.00;99.10
18450;DHT22;9354;50.194;7.690;2022-08-01T03:30:31;21.00;98.70
18450;DHT22;9354;50.194;7.690;2022-08-01T03:33:02;21.00;98.80
18450;DHT22;9354;50.194;7.690;2022-08-01T03:35:33;21.00;98.90
18450;DHT22;9354;50.194;7.690;2022-08-01T03:38:02;21.00;98.90
18450;DHT22;9354;50.194;7.690;2022-08-01T03:40:35;21.00;98.90
18450;DHT22;9354;50.194;7.690;2022-08-01T03:43:05;21.00;98.90
18450;DHT22;9354;50.194;7.690;2022-08-01T03:45:36;21.00;99.00
18450;DHT22;9354;50.194;7.690;2022-08-01T03:48:13;21.00;99.00
18450;DHT22;9354;50.194;7.690;2022-08-01T03:50:43;21.00;99.00
18450;DHT22;9354;50.194;7.690;2022-08-01T03:53:12;21.00;99.10
18450;DHT22;9354;50.194;7.690;2022-08-01T03:55:42;21.00;99.10
18450;DHT22;9354;50.194;7.690;2022-08-01T03:58:11;21.00;99.10
18450;DHT22;9354;50.194;7.690;2022-08-01T04:00:39;21.00;99.20
18450;DHT22;9354;50.194;7.690;2022-08-01T04:03:09;21.00;99.20
18450;DHT22;9354;50.194;7.690;2022-08-01T04:05:37;21.00;99.20
18450;DHT22;9354;50.194;7.690;2022-08-01T04:08:07;21.00;99.20
18450;DHT22;9354;50.194;7.690;2022-08-01T04:10:37;21.00;99.30
18450;DHT22;9354;50.194;7.690;2022-08-01T04:13:05;21.00;99.30
18450;DHT22;9354;50.194;7.690;2022-08-01T04:15:32;21.00;99.30
18450;DHT22;9354;50.194;7.690;2022-08-01T04:18:00;21.00;99.30
18450;DHT22;9354;50.194;7.690;2022-08-01T04:20:28;21.00;99.30
18450;DHT22;9354;50.194;7.690;2022-08-01T04:22:56;21.00;99.40
18450;DHT22;9354;50.194;7.690;2022-08-01T04:25:29;21.00;99.40
18450;DHT22;9354;50.194;7.690;2022-08-01T04:28:01;21.00;99.50
18450;DHT22;9354;50.194;7.690;2022-08-01T04:30:34;21.00;99.50
18450;DHT22;9354;50.194;7.690;2022-08-01T04:33:04;21.00;99.50
18450;DHT22;9354;50.194;7.690;2022-08-01T04:35:36;21.00;99.60
18450;DHT22;9354;50.194;7.690;2022-08-01T04:38:08;21.10;99.60
18450;DHT22;9354;50.194;7.690;2022-08-01T04:40:39;21.10;99.60
18450;DHT22;9354;50.194;7.690;2022-08-01T04:43:07;21.10;99.60
18450;DHT22;9354;50.194;7.690;2022-08-01T04:45:35;21.10;99.70
18450;DHT22;9354;50.194;7.690;2022-08-01T04:48:05;21.10;99.70
18450;DHT22;9354;50.194;7.690;2022-08-01T04:50:36;21.10;99.80
18450;DHT22;9354;50.194;7.690;2022-08-01T04:53:03;21.10;99.80
18450;DHT22;9354;50.194;7.690;2022-08-01T04:55:32;21.10;99.80
18450;DHT22;9354;50.194;7.690;2022-08-01T04:57:59;21.10;99.90
18450;DHT22;9354;50.194;7.690;2022-08-01T05:00:27;21.10;99.90
18450;DHT22;9354;50.194;7.690;2022-08-01T05:02:54;21.10;99.90
18450;DHT22;9354;50.194;7.690;2022-08-01T05:05:22;21.10;99.90
18450;DHT22;9354;50.194;7.690;2022-08-01T05:07:53;21.10;99.90
18450;DHT22;9354;50.194;7.690;2022-08-01T05:10:21;21.10;99.90
18450;DHT22;9354;50.194;7.690;2022-08-01T05:12:49;21.10;99.90
18450;DHT22;9354;50.194;7.690;2022-08-01T05:15:16;21.10;99.90
18450;DHT22;9354;50.194;7.690;2022-08-01T05:17:44;21.10;99.90
18450;DHT22;9354;50.194;7.690;2022-08-01T05:20:11;21.10;99.90
18450;DHT22;9354;50.194;7.690;2022-08-01T05:22:39;21.10;99.90
18450;DHT22;9354;50.194;7.690;2022-08-01T05:25:08;21.10;99.90
18450;DHT22;9354;50.194;7.690;2022-08-01T05:27:35;21.10;99.90
18450;DHT22;9354;50.194;7.690;2022-08-01T05:30:07;21.10;99.90
18450;DHT22;9354;50.194;7.690;2022-08-01T05:32:34;21.10;99.90
18450;DHT22;9354;50.194;7.690;2022-08-01T05:35:02;21.10;99.90
18450;DHT22;9354;50.194;7.690;2022-08-01T05:37:30;21.10;99.90
18450;DHT22;9354;50.194;7.690;2022-08-01T05:39:57;21.10;99.90
18450;DHT22;9354;50.194;7.690;2022-08-01T05:42:26;21.10;99.90
18450;DHT22;9354;50.194;7.690;2022-08-01T05:44:54;21.10;99.90
18450;DHT22;9354;50.194;7.690;2022-08-01T05:47:21;21.10;99.90
18450;DHT22;9354;50.194;7.690;2022-08-01T05:49:49;21.10;99.90
18450;DHT22;9354;50.194;7.690;2022-08-01T05:52:16;21.00;99.90
18450;DHT22;9354;50.194;7.690;2022-08-01T05:54:44;21.00;99.90
18450;DHT22;9354;50.194;7.690;2022-08-01T05:57:11;21.00;99.90
18450;DHT22;9354;50.194;7.690;2022-08-01T05:59:40;21.00;99.90
18450;DHT22;9354;50.194;7.690;2022-08-01T06:02:07;21.00;99.90
18450;DHT22;9354;50.194;7.690;2022-08-01T06:04:35;21.00;99.90
18450;DHT22;9354;50.194;7.690;2022-08-01T06:07:02;21.00;99.90
18450;DHT22;9354;50.194;7.690;2022-08-01T06:09:29;20.90;99.90
18450;DHT22;9354;50.194;7.690;2022-08-01T06:11:57;20.90;99.90
18450;DHT22;9354;50.194;7.690;2022-08-01T06:14:25;20.90;99.90
18450;DHT22;9354;50.194;7.690;2022-08-01T06:16:53;20.90;99.90
18450;DHT22;9354;50.194;7.690;2022-08-01T06:19:21;20.90;99.90
18450;DHT22;9354;50.194;7.690;2022-08-01T06:21:51;20.90;99.90
18450;DHT22;9354;50.194;7.690;2022-08-01T06:24:19;20.90;99.90
18450;DHT22;9354;50.194;7.690;2022-08-01T06:26:48;21.00;99.90
18450;DHT22;9354;50.194;7.690;2022-08-01T06:29:16;21.00;99.90
18450;DHT22;9354;50.194;7.690;2022-08-01T06:31:43;21.00;99.90
18450;DHT22;9354;50.194;7.690;2022-08-01T06:34:12;21.00;99.90
18450;DHT22;9354;50.194;7.690;2022-08-01T06:36:41;21.00;99.90
18450;DHT22;9354;50.194;7.690;2022-08-01T06:39:08;21.10;99.90
18450;DHT22;9354;50.194;7.690;2022-08-01T06:41:35;21.10;99.90
18450;DHT22;9354;50.194;7.690;2022-08-01T06:44:04;21.20;99.90
18450;DHT22;9354;50.194;7.690;2022-08-01T06:46:31;21.20;99.90
18450;DHT22;9354;50.194;7.690;2022-08-01T06:48:59;21.30;99.90
18450;DHT22;9354;50.194;7.690;2022-08-01T06:51:27;21.40;99.90
18450;DHT22;9354;50.194;7.690;2022-08-01T06:53:55;21.50;99.90
18450;DHT22;9354;50.194;7.690;2022-08-01T06:56:22;21.60;99.90
18450;DHT22;9354;50.194;7.690;2022-08-01T06:58:50;21.70;99.90
18450;DHT22;9354;50.194;7.690;2022-08-01T07:01:18;21.80;99.90
18450;DHT22;9354;50.194;7.690;2022-08-01T07:03:45;21.80;99.90
18450;DHT22;9354;50.194;7.690;2022-08-01T07:06:12;21.90;99.90
18450;DHT22;9354;50.194;7.690;2022-08-01T07:08:42;21.90;99.90
18450;DHT22;9354;50.194;7.690;2022-08-01T07:11:09;21.90;99.90
18450;DHT22;9354;50.194;7.690;2022-08-01T07:13:37;21.90;99.90
18450;DHT22;9354;50.194;7.690;2022-08-01T07:16:04;21.90;99.90
18450;DHT22;9354;50.194;7.690;2022-08-01T07:18:31;21.90;99.90
18450;DHT22;9354;50.194;7.690;2022-08-01T07:20:59;21.90;99.90
18450;DHT22;9354;50.194;7.690;2022-08-01T07:23:26;21.90;99.90
18450;DHT22;9354;50.194;7.690;2022-08-01T07:25:55;21.90;99.90
18450;DHT22;9354;50.194;7.690;2022-08-01T07:28:25;21.90;99.90
18450;DHT22;9354;50.194;7.690;2022-08-01T07:30:53;22.00;99.90
18450;DHT22;9354;50.194;7.690;2022-08-01T07:33:20;22.00;99.90
18450;DHT22;9354;50.194;7.690;2022-08-01T07:35:48;22.10;99.90
18450;DHT22;9354;50.194;7.690;2022-08-01T07:38:15;22.10;99.90
18450;DHT22;9354;50.194;7.690;2022-08-01T07:40:43;22.10;99.90
18450;DHT22;9354;50.194;7.690;2022-08-01T07:43:11;22.10;99.90
18450;DHT22;9354;50.194;7.690;2022-08-01T07:45:40;22.10;99.90
18450;DHT22;9354;50.194;7.690;2022-08-01T07:48:08;22.10;99.90
18450;DHT22;9354;50.194;7.690;2022-08-01T07:50:35;22.10;99.90
18450;DHT22;9354;50.194;7.690;2022-08-01T07:53:02;22.00;99.90
18450;DHT22;9354;50.194;7.690;2022-08-01T07:55:30;22.10;99.90
18450;DHT22;9354;50.194;7.690;2022-08-01T07:57:58;22.10;99.90
18450;DHT22;9354;50.194;7.690;2022-08-01T08:00:26;22.20;99.90
18450;DHT22;9354;50.194;7.690;2022-08-01T08:02:54;22.30;99.90
18450;DHT22;9354;50.194;7.690;2022-08-01T08:05:24;22.40;99.90
18450;DHT22;9354;50.194;7.690;2022-08-01T08:07:52;22.60;99.90
18450;DHT22;9354;50.194;7.690;2022-08-01T08:10:19;22.70;99.90
18450;DHT22;9354;50.194;7.690;2022-08-01T08:12:47;22.90;99.90
18450;DHT22;9354;50.194;7.690;2022-08-01T08:15:14;23.00;99.60
18450;DHT22;9354;50.194;7.690;2022-08-01T08:17:43;23.10;99.20
18450;DHT22;9354;50.194;7.690;2022-08-01T08:20:11;23.10;98.90
18450;DHT22;9354;50.194;7.690;2022-08-01T08:22:38;23.10;98.80
18450;DHT22;9354;50.194;7.690;2022-08-01T08:25:07;23.10;98.70
18450;DHT22;9354;50.194;7.690;2022-08-01T08:27:35;23.10;98.60
18450;DHT22;9354;50.194;7.690;2022-08-01T08:30:04;23.10;98.50
18450;DHT22;9354;50.194;7.690;2022-08-01T08:32:33;23.00;98.40
18450;DHT22;9354;50.194;7.690;2022-08-01T08:35:02;23.10;98.40
18450;DHT22;9354;50.194;7.690;2022-08-01T08:37:30;23.20;98.40
18450;DHT22;9354;50.194;7.690;2022-08-01T08:39:59;23.60;98.30
18450;DHT22;9354;50.194;7.690;2022-08-01T08:42:27;24.00;97.70
18450;DHT22;9354;50.194;7.690;2022-08-01T08:44:54;24.40;97.30
18450;DHT22;9354;50.194;7.690;2022-08-01T08:47:22;24.70;96.80
18450;DHT22;9354;50.194;7.690;2022-08-01T08:49:53;25.00;96.20
18450;DHT22;9354;50.194;7.690;2022-08-01T08:52:23;25.30;95.70
18450;DHT22;9354;50.194;7.690;2022-08-01T08:54:51;25.60;95.40
18450;DHT22;9354;50.194;7.690;2022-08-01T08:57:20;25.90;95.30
18450;DHT22;9354;50.194;7.690;2022-08-01T08:59:48;26.30;94.80
18450;DHT22;9354;50.194;7.690;2022-08-01T09:02:17;26.60;94.30
18450;DHT22;9354;50.194;7.690;2022-08-01T09:04:47;26.90;93.70
18450;DHT22;9354;50.194;7.690;2022-08-01T09:07:15;26.80;93.30
18450;DHT22;9354;50.194;7.690;2022-08-01T09:09:44;26.70;93.30
18450;DHT22;9354;50.194;7.690;2022-08-01T09:12:16;26.50;93.20
18450;DHT22;9354;50.194;7.690;2022-08-01T09:14:49;26.30;93.30
18450;DHT22;9354;50.194;7.690;2022-08-01T09:17:19;26.00;93.30
18450;DHT22;9354;50.194;7.690;2022-08-01T09:19:48;25.60;93.60
18450;DHT22;9354;50.194;7.690;2022-08-01T09:22:18;25.40;94.10
18450;DHT22;9354;50.194;7.690;2022-08-01T09:25:04;25.40;94.10
18450;DHT22;9354;50.194;7.690;2022-08-01T09:27:32;25.60;93.50
18450;DHT22;9354;50.194;7.690;2022-08-01T09:30:11;25.90;93.40
18450;DHT22;9354;50.194;7.690;2022-08-01T09:32:55;26.30;92.90
18450;DHT22;9354;50.194;7.690;2022-08-01T09:35:25;26.70;92.20
18450;DHT22;9354;50.194;7.690;2022-08-01T09:38:11;26.70;91.90
18450;DHT22;9354;50.194;7.690;2022-08-01T09:40:52;26.50;91.80
18450;DHT22;9354;50.194;7.690;2022-08-01T09:43:23;26.30;91.90
18450;DHT22;9354;50.194;7.690;2022-08-01T09:45:51;26.10;92.20
18450;DHT22;9354;50.194;7.690;2022-08-01T09:48:20;26.00;92.50
18450;DHT22;9354;50.194;7.690;2022-08-01T09:50:49;26.00;92.60
18450;DHT22;9354;50.194;7.690;2022-08-01T09:53:17;26.20;92.50
18450;DHT22;9354;50.194;7.690;2022-08-01T09:55:45;26.50;92.30
18450;DHT22;9354;50.194;7.690;2022-08-01T09:58:14;26.70;91.70
18450;DHT22;9354;50.194;7.690;2022-08-01T10:00:41;27.00;91.40
18450;DHT22;9354;50.194;7.690;2022-08-01T10:03:19;27.30;91.40
18450;DHT22;9354;50.194;7.690;2022-08-01T10:05:47;27.60;91.00
18450;DHT22;9354;50.194;7.690;2022-08-01T10:08:15;27.90;90.70
18450;DHT22;9354;50.194;7.690;2022-08-01T10:11:06;28.00;90.70
18450;DHT22;9354;50.194;7.690;2022-08-01T10:13:36;28.10;90.50
18450;DHT22;9354;50.194;7.690;2022-08-01T10:16:04;27.90;90.40
18450;DHT22;9354;50.194;7.690;2022-08-01T10:18:34;27.70;90.50
18450;DHT22;9354;50.194;7.690;2022-08-01T10:21:03;27.50;90.60
18450;DHT22;9354;50.194;7.690;2022-08-01T10:23:34;27.20;90.60
18450;DHT22;9354;50.194;7.690;2022-08-01T10:26:02;26.90;90.90
18450;DHT22;9354;50.194;7.690;2022-08-01T10:28:31;26.60;91.20
18450;DHT22;9354;50.194;7.690;2022-08-01T10:31:03;26.40;91.30
18450;DHT22;9354;50.194;7.690;2022-08-01T10:33:30;26.20;91.60
18450;DHT22;9354;50.194;7.690;2022-08-01T10:35:58;26.20;91.70
18450;DHT22;9354;50.194;7.690;2022-08-01T10:38:26;26.20;91.80
18450;DHT22;9354;50.194;7.690;2022-08-01T10:40:55;26.30;91.70
18450;DHT22;9354;50.194;7.690;2022-08-01T10:43:24;26.40;91.50
18450;DHT22;9354;50.194;7.690;2022-08-01T10:45:52;26.40;91.40
18450;DHT22;9354;50.194;7.690;2022-08-01T10:48:26;26.40;91.50
18450;DHT22;9354;50.194;7.690;2022-08-01T10:50:59;26.30;91.50
18450;DHT22;9354;50.194;7.690;2022-08-01T10:53:28;26.20;91.40
18450;DHT22;9354;50.194;7.690;2022-08-01T10:55:59;26.10;91.50
18450;DHT22;9354;50.194;7.690;2022-08-01T10:58:28;26.00;91.60
18450;DHT22;9354;50.194;7.690;2022-08-01T11:01:15;26.10;91.80
18450;DHT22;9354;50.194;7.690;2022-08-01T11:03:55;26.30;91.40
18450;DHT22;9354;50.194;7.690;2022-08-01T11:06:25;26.50;91.20
18450;DHT22;9354;50.194;7.690;2022-08-01T11:08:54;26.60;91.20
18450;DHT22;9354;50.194;7.690;2022-08-01T11:11:21;26.80;91.20
18450;DHT22;9354;50.194;7.690;2022-08-01T11:14:02;27.00;91.00
18450;DHT22;9354;50.194;7.690;2022-08-01T11:16:34;27.30;90.70
18450;DHT22;9354;50.194;7.690;2022-08-01T11:19:04;27.60;90.40
18450;DHT22;9354;50.194;7.690;2022-08-01T11:21:59;27.90;90.10
18450;DHT22;9354;50.194;7.690;2022-08-01T11:24:55;28.20;89.10
18450;DHT22;9354;50.194;7.690;2022-08-01T11:27:26;28.20;88.50
18450;DHT22;9354;50.194;7.690;2022-08-01T11:30:22;28.00;88.40
18450;DHT22;9354;50.194;7.690;2022-08-01T11:32:53;27.90;88.90
18450;DHT22;9354;50.194;7.690;2022-08-01T11:35:23;27.90;89.10
18450;DHT22;9354;50.194;7.690;2022-08-01T11:37:53;27.80;88.70
18450;DHT22;9354;50.194;7.690;2022-08-01T11:40:23;27.70;88.50
18450;DHT22;9354;50.194;7.690;2022-08-01T11:45:49;27.50;88.30
18450;DHT22;9354;50.194;7.690;2022-08-01T11:48:19;27.40;88.50
18450;DHT22;9354;50.194;7.690;2022-08-01T11:50:49;27.30;88.30
18450;DHT22;9354;50.194;7.690;2022-08-01T11:53:18;27.40;88.40
18450;DHT22;9354;50.194;7.690;2022-08-01T11:55:46;27.50;88.80
18450;DHT22;9354;50.194;7.690;2022-08-01T11:58:15;27.40;89.10
18450;DHT22;9354;50.194;7.690;2022-08-01T12:00:50;27.30;89.30
18450;DHT22;9354;50.194;7.690;2022-08-01T12:03:24;27.20;89.60
18450;DHT22;9354;50.194;7.690;2022-08-01T12:05:55;27.20;90.00
18450;DHT22;9354;50.194;7.690;2022-08-01T12:08:26;27.20;90.00
18450;DHT22;9354;50.194;7.690;2022-08-01T12:10:53;27.10;90.00
18450;DHT22;9354;50.194;7.690;2022-08-01T12:13:21;27.00;90.00
18450;DHT22;9354;50.194;7.690;2022-08-01T12:15:49;26.90;90.10
18450;DHT22;9354;50.194;7.690;2022-08-01T12:18:17;26.80;90.40
18450;DHT22;9354;50.194;7.690;2022-08-01T12:20:45;26.70;90.70
18450;DHT22;9354;50.194;7.690;2022-08-01T12:23:15;26.70;90.80
18450;DHT22;9354;50.194;7.690;2022-08-01T12:25:43;26.70;90.80
18450;DHT22;9354;50.194;7.690;2022-08-01T12:28:11;26.70;90.80
18450;DHT22;9354;50.194;7.690;2022-08-01T12:30:40;26.50;90.80
18450;DHT22;9354;50.194;7.690;2022-08-01T12:33:09;26.40;90.90
18450;DHT22;9354;50.194;7.690;2022-08-01T12:35:40;26.30;91.10
18450;DHT22;9354;50.194;7.690;2022-08-01T12:38:16;26.20;91.20
18450;DHT22;9354;50.194;7.690;2022-08-01T12:40:45;26.10;91.30
18450;DHT22;9354;50.194;7.690;2022-08-01T12:43:16;26.10;91.50
18450;DHT22;9354;50.194;7.690;2022-08-01T12:45:45;26.10;91.40
18450;DHT22;9354;50.194;7.690;2022-08-01T12:48:15;26.10;91.30
18450;DHT22;9354;50.194;7.690;2022-08-01T12:50:43;26.20;91.20
18450;DHT22;9354;50.194;7.690;2022-08-01T12:53:12;26.20;91.10
18450;DHT22;9354;50.194;7.690;2022-08-01T12:55:46;26.20;91.10
18450;DHT22;9354;50.194;7.690;2022-08-01T12:58:15;26.20;91.10
18450;DHT22;9354;50.194;7.690;2022-08-01T13:00:44;26.20;91.00
18450;DHT22;9354;50.194;7.690;2022-08-01T13:03:14;26.30;91.00
18450;DHT22;9354;50.194;7.690;2022-08-01T13:05:46;26.30;91.00
18450;DHT22;9354;50.194;7.690;2022-08-01T13:08:15;26.30;91.10
18450;DHT22;9354;50.194;7.690;2022-08-01T13:10:45;26.20;91.10
18450;DHT22;9354;50.194;7.690;2022-08-01T13:13:13;26.20;91.10
18450;DHT22;9354;50.194;7.690;2022-08-01T13:15:42;26.20;91.50
18450;DHT22;9354;50.194;7.690;2022-08-01T13:18:24;26.20;91.10
18450;DHT22;9354;50.194;7.690;2022-08-01T13:21:07;26.20;91.10
18450;DHT22;9354;50.194;7.690;2022-08-01T13:23:34;26.10;91.00
18450;DHT22;9354;50.194;7.690;2022-08-01T13:26:03;26.10;91.00
18450;DHT22;9354;50.194;7.690;2022-08-01T13:28:31;26.20;91.00
18450;DHT22;9354;50.194;7.690;2022-08-01T13:31:02;26.20;90.90
18450;DHT22;9354;50.194;7.690;2022-08-01T13:33:41;26.30;90.90
18450;DHT22;9354;50.194;7.690;2022-08-01T13:36:09;26.30;91.00
18450;DHT22;9354;50.194;7.690;2022-08-01T13:38:37;26.30;91.10
18450;DHT22;9354;50.194;7.690;2022-08-01T13:41:38;26.40;91.10
18450;DHT22;9354;50.194;7.690;2022-08-01T13:44:06;26.50;91.10
18450;DHT22;9354;50.194;7.690;2022-08-01T13:46:34;26.40;91.10
18450;DHT22;9354;50.194;7.690;2022-08-01T13:49:02;26.40;91.20
18450;DHT22;9354;50.194;7.690;2022-08-01T13:51:29;26.40;91.20
18450;DHT22;9354;50.194;7.690;2022-08-01T13:53:57;26.40;91.40
18450;DHT22;9354;50.194;7.690;2022-08-01T13:56:25;26.40;91.20
18450;DHT22;9354;50.194;7.690;2022-08-01T13:58:55;26.50;91.10
18450;DHT22;9354;50.194;7.690;2022-08-01T14:01:22;26.60;91.00
18450;DHT22;9354;50.194;7.690;2022-08-01T14:03:50;26.80;90.90
18450;DHT22;9354;50.194;7.690;2022-08-01T14:06:18;26.80;90.50
18450;DHT22;9354;50.194;7.690;2022-08-01T14:08:48;26.90;90.20
18450;DHT22;9354;50.194;7.690;2022-08-01T14:11:16;26.90;90.20
18450;DHT22;9354;50.194;7.690;2022-08-01T14:13:43;26.90;90.20
18450;DHT22;9354;50.194;7.690;2022-08-01T14:16:12;27.00;90.10
18450;DHT22;9354;50.194;7.690;2022-08-01T14:18:40;27.00;90.10
18450;DHT22;9354;50.194;7.690;2022-08-01T14:21:07;27.10;90.00
18450;DHT22;9354;50.194;7.690;2022-08-01T14:23:34;27.10;89.90
18450;DHT22;9354;50.194;7.690;2022-08-01T14:26:02;27.10;90.00
18450;DHT22;9354;50.194;7.690;2022-08-01T14:28:29;27.20;90.00
18450;DHT22;9354;50.194;7.690;2022-08-01T14:30:57;27.20;89.60
18450;DHT22;9354;50.194;7.690;2022-08-01T14:33:26;27.20;89.60
18450;DHT22;9354;50.194;7.690;2022-08-01T14:35:54;27.20;89.60
18450;DHT22;9354;50.194;7.690;2022-08-01T14:38:22;27.10;89.40
18450;DHT22;9354;50.194;7.690;2022-08-01T14:40:49;27.00;89.30
18450;DHT22;9354;50.194;7.690;2022-08-01T14:43:17;26.80;89.20
18450;DHT22;9354;50.194;7.690;2022-08-01T14:45:45;26.70;89.60
18450;DHT22;9354;50.194;7.690;2022-08-01T14:48:15;26.60;90.00
18450;DHT22;9354;50.194;7.690;2022-08-01T14:50:44;26.50;90.10
18450;DHT22;9354;50.194;7.690;2022-08-01T14:53:12;26.30;90.20
18450;DHT22;9354;50.194;7.690;2022-08-01T14:55:39;26.20;90.50
18450;DHT22;9354;50.194;7.690;2022-08-01T14:58:06;26.00;90.60
18450;DHT22;9354;50.194;7.690;2022-08-01T15:00:34;25.90;90.80
18450;DHT22;9354;50.194;7.690;2022-08-01T15:03:01;25.80;90.90
18450;DHT22;9354;50.194;7.690;2022-08-01T15:05:29;25.70;91.10
18450;DHT22;9354;50.194;7.690;2022-08-01T15:08:00;25.50;91.20
18450;DHT22;9354;50.194;7.690;2022-08-01T15:10:27;25.40;91.40
18450;DHT22;9354;50.194;7.690;2022-08-01T15:12:55;25.40;91.50
18450;DHT22;9354;50.194;7.690;2022-08-01T15:15:23;25.30;91.70
18450;DHT22;9354;50.194;7.690;2022-08-01T15:17:51;25.20;92.30
18450;DHT22;9354;50.194;7.690;2022-08-01T15:20:18;25.10;92.70
18450;DHT22;9354;50.194;7.690;2022-08-01T15:22:46;24.90;92.90
18450;DHT22;9354;50.194;7.690;2022-08-01T15:25:16;24.90;93.00
18450;DHT22;9354;50.194;7.690;2022-08-01T15:27:43;24.70;93.00
18450;DHT22;9354;50.194;7.690;2022-08-01T15:30:11;24.60;93.10
18450;DHT22;9354;50.194;7.690;2022-08-01T15:32:38;24.60;93.20
18450;DHT22;9354;50.194;7.690;2022-08-01T15:35:06;24.60;93.20
18450;DHT22;9354;50.194;7.690;2022-08-01T15:37:36;24.50;93.20
18450;DHT22;9354;50.194;7.690;2022-08-01T15:40:04;24.50;93.20
18450;DHT22;9354;50.194;7.690;2022-08-01T15:42:33;24.50;93.30
18450;DHT22;9354;50.194;7.690;2022-08-01T15:45:00;24.50;93.40
18450;DHT22;9354;50.194;7.690;2022-08-01T15:47:28;24.50;93.30
18450;DHT22;9354;50.194;7.690;2022-08-01T15:49:55;24.40;92.90
18450;DHT22;9354;50.194;7.690;2022-08-01T15:52:25;24.40;92.70
18450;DHT22;9354;50.194;7.690;2022-08-01T15:54:52;24.30;92.50
18450;DHT22;9354;50.194;7.690;2022-08-01T15:57:20;24.30;92.40
18450;DHT22;9354;50.194;7.690;2022-08-01T15:59:49;24.30;92.30
18450;DHT22;9354;50.194;7.690;2022-08-01T16:02:16;24.30;92.30